Brooksville, Kentucky
Current Conditions -  °F | °C
As of 3:15 AM on Monday 22 Dec 2014 (Local Time) from KFGX Reporting Station
Overcast Overcast  
Wind Chill: 27°   Ceiling: 5000
Heat Index: 32°   Visibility: 10mi
Dew Point: 28°   Wind: 5mph
Humidity: 86%   Direction: 100°E
Pressure: 30.06"   Gusts: NA
Location:  38.68°N, 84.07°W
Report Text: KFGX 220815Z AUTO 10004KT 10SM OVC050 00/M02 A3006 RMK AO2 T10021023
Loading
Personal Weather Stations






























Interactive Weather Map New forecast layout! Learn more

10-Day Weather Forecast

Advertisements
Track Severe Weather on mobile